Time;durP1;ratioP1;P1;durP2;ratioP2;P2;SDS_P1;SDS_P2;PMS_P1;PMS_P2;Temp;Humidity;BMP_temperature;BMP_pressure;BME280_temperature;BME280_humidity;BME280_pressure;Samples;Min_cycle;Max_cycle;Signal;HPM_P1;HPM_P2
2024/04/10 00:00:04;;;;;;;17.60;3.47;;;10.60;99.90;;;;;;815711;176;27003;-82
2024/04/10 00:02:31;;;;;;;13.60;4.03;;;10.60;99.90;;;;;;814992;176;27059;-84
2024/04/10 00:04:57;;;;;;;10.03;4.10;;;10.60;99.90;;;;;;814833;176;26458;-83
2024/04/10 00:07:24;;;;;;;18.77;5.03;;;10.50;99.90;;;;;;814661;174;26444;-83
2024/04/10 00:09:50;;;;;;;18.17;4.90;;;10.50;99.90;;;;;;814282;177;26448;-83
2024/04/10 00:12:17;;;;;;;16.40;3.60;;;10.60;99.90;;;;;;814190;176;26436;-83
2024/04/10 00:14:44;;;;;;;14.97;3.40;;;10.50;99.90;;;;;;814343;176;26443;-83
2024/04/10 00:17:10;;;;;;;20.77;5.70;;;10.50;99.90;;;;;;813997;176;26429;-83
2024/04/10 00:19:37;;;;;;;15.50;5.00;;;10.50;99.90;;;;;;813514;176;26427;-82
2024/04/10 00:22:04;;;;;;;14.90;4.17;;;10.50;99.90;;;;;;813625;176;26420;-82
2024/04/10 00:24:31;;;;;;;28.80;8.03;;;10.50;99.90;;;;;;813511;174;26983;-83
2024/04/10 00:26:58;;;;;;;15.37;4.50;;;10.50;99.90;;;;;;813429;174;27014;-82
2024/04/10 00:29:24;;;;;;;18.93;6.20;;;10.50;99.90;;;;;;813606;176;26440;-82
2024/04/10 00:31:52;;;;;;;16.03;5.43;;;10.50;99.90;;;;;;813477;174;26432;-82
2024/04/10 00:34:18;;;;;;;23.63;7.17;;;10.50;99.90;;;;;;813233;177;26436;-83
2024/04/10 00:36:45;;;;;;;13.30;3.80;;;10.40;99.90;;;;;;813037;174;26465;-82
2024/04/10 00:39:12;;;;;;;14.80;3.30;;;10.40;99.90;;;;;;813144;176;26988;-83
2024/04/10 00:41:38;;;;;;;17.80;3.73;;;10.40;99.90;;;;;;812979;177;26450;-83
2024/04/10 00:44:05;;;;;;;18.90;3.80;;;10.40;99.90;;;;;;813078;177;26960;-83
2024/04/10 00:46:32;;;;;;;19.67;3.00;;;10.40;99.90;;;;;;812916;176;27051;-84
2024/04/10 00:48:58;;;;;;;26.50;5.87;;;10.40;99.90;;;;;;812738;177;27020;-83
2024/04/10 00:51:25;;;;;;;20.23;6.40;;;10.40;99.90;;;;;;812967;176;26973;-83
2024/04/10 00:53:52;;;;;;;21.13;5.07;;;10.40;99.90;;;;;;812965;177;26421;-82
2024/04/10 00:56:18;;;;;;;17.20;4.03;;;10.30;99.90;;;;;;812796;177;26448;-83
2024/04/10 00:58:45;;;;;;;14.97;3.47;;;10.40;99.90;;;;;;812885;176;26432;-83
2024/04/10 01:01:11;;;;;;;18.27;3.97;;;10.40;99.90;;;;;;812614;177;26452;-82
2024/04/10 01:03:38;;;;;;;18.07;3.40;;;10.40;99.90;;;;;;812868;174;26441;-83
2024/04/10 01:06:05;;;;;;;17.10;4.60;;;10.40;99.90;;;;;;812736;177;26412;-82
2024/04/10 01:08:32;;;;;;;20.67;4.03;;;10.40;99.90;;;;;;812887;177;26429;-82
2024/04/10 01:10:58;;;;;;;21.57;4.67;;;10.40;99.90;;;;;;815281;174;26991;-82
2024/04/10 01:13:25;;;;;;;14.83;3.60;;;10.40;99.90;;;;;;814831;176;26457;-83
2024/04/10 01:15:51;;;;;;;18.13;3.87;;;10.30;99.90;;;;;;814350;176;27061;-83
2024/04/10 01:18:18;;;;;;;19.17;3.67;;;10.30;99.90;;;;;;814376;176;26448;-83
2024/04/10 01:20:45;;;;;;;18.57;3.83;;;10.20;99.90;;;;;;813913;176;26499;-83
2024/04/10 01:23:11;;;;;;;13.03;3.30;;;10.20;99.90;;;;;;813804;177;26437;-83
2024/04/10 01:25:38;;;;;;;22.67;3.83;;;10.10;99.90;;;;;;814093;176;26479;-83
2024/04/10 01:28:05;;;;;;;13.93;3.67;;;10.00;99.90;;;;;;813882;176;26429;-83
2024/04/10 01:30:31;;;;;;;22.40;4.00;;;9.90;99.90;;;;;;813623;176;26435;-83
2024/04/10 01:32:59;;;;;;;15.73;3.20;;;9.80;99.90;;;;;;813826;176;26415;-83
2024/04/10 01:35:26;;;;;;;24.87;3.80;;;9.80;99.90;;;;;;813442;176;26432;-83
2024/04/10 01:37:52;;;;;;;22.13;3.67;;;9.80;99.90;;;;;;813695;174;26440;-84
2024/04/10 01:40:19;;;;;;;18.67;3.27;;;9.70;99.90;;;;;;813835;176;27029;-84
2024/04/10 01:42:46;;;;;;;15.73;3.20;;;9.60;99.90;;;;;;813877;177;26429;-81
2024/04/10 01:45:12;;;;;;;16.90;3.67;;;9.60;99.90;;;;;;813453;177;26421;-82
2024/04/10 01:47:40;;;;;;;14.13;2.90;;;9.60;99.90;;;;;;813195;177;26449;-82
2024/04/10 01:50:07;;;;;;;15.73;3.67;;;9.60;99.90;;;;;;812900;177;26449;-83
2024/04/10 01:52:34;;;;;;;18.70;3.60;;;9.50;99.90;;;;;;813043;177;26425;-84
2024/04/10 01:55:00;;;;;;;21.37;4.67;;;9.50;99.90;;;;;;812981;176;26445;-83
2024/04/10 01:57:28;;;;;;;18.30;4.23;;;9.50;99.90;;;;;;812880;177;26598;-83
2024/04/10 01:59:54;;;;;;;16.20;3.33;;;9.50;99.90;;;;;;812929;174;26447;-83
2024/04/10 02:02:21;;;;;;;15.33;3.90;;;9.50;99.90;;;;;;813045;176;26443;-84
2024/04/10 02:04:48;;;;;;;18.90;4.37;;;9.50;99.90;;;;;;812848;174;26449;-83
2024/04/10 02:07:14;;;;;;;22.20;4.90;;;9.40;99.90;;;;;;812921;177;26612;-83
2024/04/10 02:09:41;;;;;;;21.83;5.20;;;9.40;99.90;;;;;;812879;177;26456;-83
2024/04/10 02:12:08;;;;;;;13.13;5.50;;;9.40;99.90;;;;;;812950;177;26999;-83
2024/04/10 02:14:35;;;;;;;31.13;10.43;;;9.30;99.90;;;;;;813008;177;26442;-83
2024/04/10 02:17:01;;;;;;;33.67;11.67;;;9.30;99.90;;;;;;812841;174;26464;-83
2024/04/10 02:19:28;;;;;;;28.93;7.60;;;9.30;99.90;;;;;;812927;177;26434;-84
2024/04/10 02:21:54;;;;;;;30.93;7.47;;;9.20;99.90;;;;;;814902;174;26418;-84
2024/04/10 02:24:21;;;;;;;23.70;7.17;;;9.20;99.90;;;;;;815219;174;26428;-84
2024/04/10 02:26:47;;;;;;;32.30;11.23;;;9.10;99.90;;;;;;814741;176;26430;-84
2024/04/10 02:29:14;;;;;;;30.27;6.40;;;9.00;99.90;;;;;;814654;176;26415;-83
2024/04/10 02:31:41;;;;;;;20.37;4.90;;;9.10;99.90;;;;;;814260;176;26448;-83
2024/04/10 02:34:07;;;;;;;15.83;3.87;;;9.10;99.90;;;;;;814151;176;26417;-83
2024/04/10 02:36:34;;;;;;;20.43;4.50;;;9.10;99.90;;;;;;813941;176;26570;-83
2024/04/10 02:39:01;;;;;;;25.87;9.90;;;9.00;99.90;;;;;;813734;173;26445;-83
2024/04/10 02:41:27;;;;;;;25.87;9.10;;;9.10;99.90;;;;;;813443;173;26443;-83
2024/04/10 02:43:54;;;;;;;38.93;12.57;;;9.10;99.90;;;;;;813423;176;26425;-84
2024/04/10 02:46:21;;;;;;;22.97;6.37;;;9.10;99.90;;;;;;813330;177;26439;-83
2024/04/10 02:48:47;;;;;;;18.27;4.50;;;9.00;99.90;;;;;;813225;175;26428;-83
2024/04/10 02:51:14;;;;;;;15.63;4.20;;;9.00;99.90;;;;;;813377;174;27006;-83
2024/04/10 02:53:40;;;;;;;19.70;3.77;;;8.90;99.90;;;;;;813577;177;27644;-83
2024/04/10 02:56:07;;;;;;;16.10;3.33;;;8.90;99.90;;;;;;813345;176;26444;-83
2024/04/10 02:58:34;;;;;;;28.47;4.30;;;8.90;99.90;;;;;;812863;177;26455;-83
2024/04/10 03:01:00;;;;;;;19.60;4.10;;;8.90;99.90;;;;;;812890;176;26481;-83
2024/04/10 03:03:27;;;;;;;26.13;4.30;;;8.90;99.90;;;;;;811377;177;26578;-84
2024/04/10 03:06:03;;;;;;;17.47;4.63;;;8.80;99.90;;;;;;807885;178;26437;-83
2024/04/10 03:08:29;;;;;;;20.57;4.40;;;8.80;99.90;;;;;;807788;178;26454;-83
2024/04/10 03:10:56;;;;;;;15.27;3.80;;;8.90;99.90;;;;;;807784;178;26458;-84
2024/04/10 03:13:22;;;;;;;20.67;5.00;;;8.70;99.90;;;;;;807852;178;26990;-83
2024/04/10 03:15:49;;;;;;;14.20;3.40;;;8.70;99.90;;;;;;787350;183;26472;-83
2024/04/10 03:18:15;;;;;;;19.20;3.83;;;8.70;99.90;;;;;;787311;183;27008;-83
2024/04/10 03:20:42;;;;;;;16.23;3.83;;;8.70;99.90;;;;;;787113;183;26633;-84
2024/04/10 03:23:09;;;;;;;17.73;3.57;;;8.70;99.90;;;;;;787361;183;26444;-83
2024/04/10 03:25:36;;;;;;;22.30;4.10;;;8.70;99.90;;;;;;811461;176;26416;-83
2024/04/10 03:28:02;;;;;;;19.67;4.40;;;8.70;99.90;;;;;;817253;176;26471;-83
2024/04/10 03:30:29;;;;;;;15.30;3.93;;;8.80;99.90;;;;;;816489;176;26519;-83
2024/04/10 03:32:55;;;;;;;14.83;3.60;;;8.70;99.90;;;;;;818499;174;26427;-83
2024/04/10 03:35:22;;;;;;;13.63;3.73;;;8.60;99.90;;;;;;804100;178;26445;-83
2024/04/10 03:37:49;;;;;;;20.97;4.23;;;8.60;99.90;;;;;;803409;179;27016;-83
2024/04/10 03:40:16;;;;;;;15.97;3.73;;;8.70;99.90;;;;;;803170;179;26486;-83
2024/04/10 03:42:42;;;;;;;15.53;3.53;;;8.60;99.90;;;;;;818015;176;26953;-83
2024/04/10 03:45:08;;;;;;;16.17;4.23;;;8.70;99.90;;;;;;817907;176;26439;-82
2024/04/10 03:47:35;;;;;;;19.20;4.20;;;8.60;99.90;;;;;;818072;175;26455;-82
2024/04/10 03:50:02;;;;;;;20.00;4.13;;;8.50;99.90;;;;;;818341;176;26446;-82
2024/04/10 03:52:28;;;;;;;16.70;4.00;;;8.50;99.90;;;;;;817612;175;26422;-83
2024/04/10 03:54:55;;;;;;;16.13;4.10;;;8.50;99.90;;;;;;817674;176;26411;-82
2024/04/10 03:57:21;;;;;;;20.10;3.83;;;8.50;99.90;;;;;;817779;176;26436;-83
2024/04/10 03:59:48;;;;;;;19.93;4.43;;;8.60;99.90;;;;;;817716;176;26459;-83
2024/04/10 04:02:15;;;;;;;18.63;4.93;;;8.60;99.90;;;;;;817764;176;26466;-83
2024/04/10 04:04:41;;;;;;;24.00;4.87;;;8.70;99.90;;;;;;817724;175;26411;-82
2024/04/10 04:07:08;;;;;;;15.87;3.43;;;8.60;99.90;;;;;;817820;176;26427;-83
2024/04/10 04:09:35;;;;;;;15.03;4.43;;;8.60;99.90;;;;;;817424;176;26400;-83
2024/04/10 04:12:01;;;;;;;20.50;4.13;;;8.50;99.90;;;;;;803043;169;26494;-75
2024/04/10 04:14:28;;;;;;;27.87;4.10;;;8.50;99.90;;;;;;797362;180;26500;-78
2024/04/10 04:16:54;;;;;;;18.67;4.30;;;8.50;99.90;;;;;;785088;180;26491;-78
2024/04/10 04:19:21;;;;;;;24.67;4.33;;;8.50;99.90;;;;;;793812;180;26454;-79
2024/04/10 04:21:47;;;;;;;24.23;4.90;;;8.40;99.90;;;;;;785408;180;26472;-78
2024/04/10 04:24:14;;;;;;;25.33;5.63;;;8.40;99.90;;;;;;781201;178;26585;-76
2024/04/10 04:26:41;;;;;;;21.13;4.20;;;8.50;99.90;;;;;;786106;181;26456;-77
2024/04/10 04:29:07;;;;;;;17.20;3.70;;;8.40;99.90;;;;;;789936;181;26475;-78
2024/04/10 04:31:34;;;;;;;25.87;4.80;;;8.30;99.90;;;;;;780117;184;26473;-78
2024/04/10 04:34:07;;;;;;;19.67;4.63;;;8.40;99.90;;;;;;779295;183;26632;-78
2024/04/10 04:36:27;;;;;;;24.70;4.33;;;8.40;99.90;;;;;;790073;180;27073;-76
2024/04/10 04:38:54;;;;;;;23.03;3.93;;;8.40;99.90;;;;;;796021;180;26443;-79
2024/04/10 04:41:20;;;;;;;23.33;4.20;;;8.40;99.90;;;;;;786604;181;27027;-78
2024/04/10 04:43:47;;;;;;;24.07;4.27;;;8.30;99.90;;;;;;784592;178;26476;-78
2024/04/10 04:46:14;;;;;;;16.30;3.53;;;8.30;99.90;;;;;;795383;179;26452;-79
2024/04/10 04:48:41;;;;;;;16.77;3.93;;;8.30;99.90;;;;;;779860;183;27033;-79
2024/04/10 04:51:10;;;;;;;21.90;3.63;;;8.30;99.90;;;;;;777767;183;26529;-78
2024/04/10 04:53:34;;;;;;;13.33;4.30;;;8.30;99.90;;;;;;780144;182;26472;-77
2024/04/10 04:56:01;;;;;;;28.37;3.90;;;8.30;99.90;;;;;;779911;184;26508;-78
2024/04/10 04:58:27;;;;;;;18.93;3.87;;;8.30;99.90;;;;;;778809;183;26602;-78
2024/04/10 05:00:54;;;;;;;20.87;4.47;;;8.30;99.90;;;;;;793736;180;26599;-78
2024/04/10 05:05:53;;;;;;;15.90;3.77;;;8.10;99.90;;;;;;787663;181;26486;-79
2024/04/10 05:08:19;;;;;;;21.10;4.10;;;8.20;99.90;;;;;;789577;181;26498;-78
2024/04/10 05:10:46;;;;;;;17.70;4.07;;;8.20;99.90;;;;;;789061;181;26536;-78
2024/04/10 05:13:12;;;;;;;23.00;5.00;;;8.20;99.90;;;;;;787553;181;26456;-78
2024/04/10 05:15:40;;;;;;;21.10;5.40;;;8.30;99.90;;;;;;783886;181;26457;-78
2024/04/10 05:18:05;;;;;;;20.30;3.83;;;8.30;99.90;;;;;;783938;181;26454;-79
2024/04/10 05:20:33;;;;;;;29.23;4.47;;;8.30;99.90;;;;;;784993;181;26487;-77
2024/04/10 05:22:59;;;;;;;20.23;5.07;;;8.30;99.90;;;;;;785680;181;27025;-77
2024/04/10 05:25:25;;;;;;;23.43;4.87;;;8.20;99.90;;;;;;784022;181;26488;-77
2024/04/10 05:27:52;;;;;;;27.37;4.63;;;8.30;99.90;;;;;;780014;181;26458;-78
2024/04/10 05:30:19;;;;;;;28.63;4.23;;;8.20;99.90;;;;;;784649;181;27035;-79
2024/04/10 05:32:46;;;;;;;25.97;4.70;;;8.20;99.90;;;;;;785339;181;27063;-76
2024/04/10 05:35:14;;;;;;;29.20;4.87;;;8.30;99.90;;;;;;785401;181;26478;-78
2024/04/10 05:37:40;;;;;;;23.37;4.50;;;8.30;99.90;;;;;;787500;181;26457;-77
2024/04/10 05:40:10;;;;;;;19.20;4.50;;;8.30;99.90;;;;;;783488;181;27029;-78
2024/04/10 05:42:36;;;;;;;29.67;5.10;;;8.50;99.90;;;;;;785009;181;26529;-79
2024/04/10 05:45:05;;;;;;;22.10;5.33;;;8.50;99.90;;;;;;783367;181;26599;-79
2024/04/10 05:47:32;;;;;;;33.70;5.43;;;8.50;99.90;;;;;;782504;181;26455;-79
2024/04/10 05:49:58;;;;;;;20.83;4.60;;;8.60;99.90;;;;;;786467;181;26485;-78
2024/04/10 05:52:25;;;;;;;26.93;5.97;;;8.60;99.90;;;;;;775176;184;26462;-79
2024/04/10 05:54:55;;;;;;;21.73;4.87;;;8.70;99.90;;;;;;777903;184;26619;-78
2024/04/10 05:57:24;;;;;;;15.67;4.00;;;8.80;99.90;;;;;;781363;182;26489;-79
2024/04/10 05:59:48;;;;;;;17.17;4.40;;;8.80;99.90;;;;;;780183;183;26473;-79
2024/04/10 06:02:14;;;;;;;20.70;4.90;;;8.90;99.90;;;;;;779912;183;26478;-79
2024/04/10 06:04:41;;;;;;;20.87;3.90;;;8.90;99.90;;;;;;780749;181;26445;-79
2024/04/10 06:07:08;;;;;;;22.93;4.23;;;8.90;99.90;;;;;;781299;183;27074;-78
2024/04/10 06:09:34;;;;;;;18.33;4.37;;;8.90;99.90;;;;;;787457;180;26456;-76
2024/04/10 06:12:01;;;;;;;13.83;4.53;;;8.90;99.90;;;;;;785952;180;26470;-77
2024/04/10 06:14:38;;;;;;;18.27;3.93;;;8.90;99.90;;;;;;785829;180;27002;-78
2024/04/10 06:17:05;;;;;;;16.10;4.43;;;9.00;99.90;;;;;;772644;184;26526;-78
2024/04/10 06:19:32;;;;;;;27.80;4.97;;;9.00;99.90;;;;;;793318;180;26449;-76
2024/04/10 06:21:59;;;;;;;21.57;4.67;;;9.10;99.90;;;;;;779322;182;26468;-80
2024/04/10 06:24:26;;;;;;;28.47;5.50;;;9.20;99.90;;;;;;793002;180;26449;-79
2024/04/10 06:26:52;;;;;;;13.37;4.10;;;9.40;99.90;;;;;;787570;180;26461;-78
2024/04/10 06:29:19;;;;;;;22.53;5.17;;;9.50;99.90;;;;;;777870;182;26474;-78
2024/04/10 06:31:46;;;;;;;15.13;4.07;;;9.50;99.90;;;;;;779607;180;26680;-74
2024/04/10 06:34:12;;;;;;;26.03;5.30;;;9.50;99.90;;;;;;792819;180;26485;-78
2024/04/10 06:36:39;;;;;;;23.33;5.03;;;9.50;99.90;;;;;;779045;180;26464;-78
2024/04/10 06:39:07;;;;;;;17.97;4.43;;;9.50;99.90;;;;;;791933;181;27052;-78
2024/04/10 06:41:32;;;;;;;24.20;5.07;;;9.60;99.90;;;;;;786602;180;26463;-79
2024/04/10 06:43:59;;;;;;;26.83;4.80;;;9.60;99.90;;;;;;791991;180;26969;-78
2024/04/10 06:46:25;;;;;;;21.47;4.50;;;9.70;99.90;;;;;;779826;184;26540;-79
2024/04/10 06:48:53;;;;;;;25.10;5.17;;;9.70;99.90;;;;;;777908;184;28095;-78
2024/04/10 06:51:19;;;;;;;18.63;4.43;;;9.80;99.90;;;;;;780661;183;26455;-79
2024/04/10 06:53:45;;;;;;;24.83;4.50;;;9.90;99.90;;;;;;782766;181;26480;-79
2024/04/10 06:56:12;;;;;;;17.23;4.80;;;9.90;99.90;;;;;;787272;181;26471;-79
2024/04/10 06:58:38;;;;;;;20.87;5.00;;;10.00;99.90;;;;;;789728;180;26477;-79
2024/04/10 07:01:05;;;;;;;21.70;5.67;;;10.20;99.90;;;;;;790206;181;27036;-77
2024/04/10 07:03:31;;;;;;;18.57;4.33;;;10.10;99.90;;;;;;784986;181;26461;-79
2024/04/10 07:06:04;;;;;;;20.63;5.60;;;10.10;99.90;;;;;;790936;180;26421;-78
2024/04/10 07:08:30;;;;;;;14.60;4.20;;;10.00;99.90;;;;;;778186;183;27096;-78
2024/04/10 07:10:57;;;;;;;16.80;4.00;;;10.00;99.90;;;;;;779914;183;26473;-78
2024/04/10 07:13:24;;;;;;;20.53;4.47;;;10.00;99.90;;;;;;779537;181;26539;-78
2024/04/10 07:15:56;;;;;;;13.90;3.90;;;10.10;99.90;;;;;;792543;180;26980;-78
2024/04/10 07:18:23;;;;;;;18.50;4.13;;;10.20;99.90;;;;;;788926;181;27019;-78
2024/04/10 07:21:04;;;;;;;18.67;5.17;;;10.20;99.90;;;;;;784857;180;26474;-77
2024/04/10 07:23:31;;;;;;;19.27;4.80;;;10.30;99.90;;;;;;792265;180;26436;-79
2024/04/10 07:26:07;;;;;;;23.20;5.47;;;10.30;99.90;;;;;;776433;184;26473;-78
2024/04/10 07:28:33;;;;;;;16.67;5.00;;;10.60;99.90;;;;;;784023;180;27026;-76
2024/04/10 07:30:59;;;;;;;24.60;5.60;;;10.80;99.90;;;;;;779035;182;26614;-79
2024/04/10 07:33:26;;;;;;;19.33;5.47;;;10.80;99.90;;;;;;790806;181;27096;-78
2024/04/10 07:35:52;;;;;;;23.40;7.10;;;10.90;99.90;;;;;;781528;181;26515;-77
2024/04/10 07:38:19;;;;;;;18.00;5.33;;;11.00;99.90;;;;;;789520;181;26500;-78
2024/04/10 07:40:51;;;;;;;20.73;6.07;;;11.10;99.90;;;;;;789532;181;26625;-78
2024/04/10 07:43:18;;;;;;;25.97;6.03;;;11.20;99.90;;;;;;793508;179;27640;-77
2024/04/10 07:45:46;;;;;;;22.20;5.10;;;11.40;99.90;;;;;;797750;180;26448;-78
2024/04/10 07:48:13;;;;;;;17.87;4.30;;;11.40;99.90;;;;;;788769;181;26476;-77
2024/04/10 07:50:39;;;;;;;18.20;5.23;;;11.50;99.90;;;;;;791900;181;26455;-79
2024/04/10 07:53:06;;;;;;;17.33;4.67;;;11.30;99.90;;;;;;799249;171;26705;-85
2024/04/10 07:55:33;;;;;;;15.53;4.77;;;11.50;99.90;;;;;;786009;179;26457;-86
2024/04/10 07:57:59;;;;;;;16.93;4.20;;;11.40;99.90;;;;;;796003;180;26433;-84
2024/04/10 08:00:34;;;;;;;24.47;4.70;;;11.40;99.90;;;;;;788809;174;26481;-85
2024/04/10 08:03:01;;;;;;;20.27;4.70;;;11.60;99.90;;;;;;775461;183;26614;-79
2024/04/10 08:05:27;;;;;;;16.80;4.37;;;11.50;99.90;;;;;;773199;184;26476;-79
2024/04/10 08:07:54;;;;;;;22.43;5.83;;;11.60;99.90;;;;;;768720;184;26625;-77
2024/04/10 08:10:20;;;;;;;20.33;4.50;;;11.70;99.90;;;;;;779386;184;26469;-78
2024/04/10 08:12:47;;;;;;;15.67;4.77;;;11.60;99.90;;;;;;778488;184;26489;-79
2024/04/10 08:15:14;;;;;;;25.23;5.03;;;11.80;99.90;;;;;;768118;187;26469;-79
2024/04/10 08:17:41;;;;;;;15.43;4.27;;;11.90;99.90;;;;;;764472;186;26523;-77
2024/04/10 08:20:07;;;;;;;16.43;4.23;;;11.70;99.90;;;;;;781653;181;27015;-79
2024/04/10 08:22:34;;;;;;;22.63;6.77;;;11.70;99.90;;;;;;778946;184;26461;-80
2024/04/10 08:25:00;;;;;;;24.43;6.77;;;11.80;99.90;;;;;;783518;183;26450;-79
2024/04/10 08:27:27;;;;;;;24.70;7.03;;;11.80;99.90;;;;;;782629;183;26461;-79
2024/04/10 08:29:54;;;;;;;21.00;5.90;;;12.10;99.90;;;;;;760348;186;26514;-79
2024/04/10 08:32:20;;;;;;;21.97;5.17;;;12.30;99.90;;;;;;775362;183;27070;-79
2024/04/10 08:34:47;;;;;;;18.33;6.13;;;12.40;99.90;;;;;;767469;187;26646;-78
2024/04/10 08:37:13;;;;;;;18.23;5.57;;;12.30;99.90;;;;;;780248;183;26475;-79
2024/04/10 08:39:40;;;;;;;22.07;5.33;;;12.30;99.90;;;;;;761782;187;26511;-78
2024/04/10 08:42:07;;;;;;;16.73;5.53;;;12.40;99.90;;;;;;781166;183;26525;-78
2024/04/10 08:44:34;;;;;;;29.33;10.03;;;12.40;99.90;;;;;;782239;183;26450;-78
2024/04/10 08:47:00;;;;;;;18.87;5.50;;;12.10;99.90;;;;;;758047;187;26490;-81
2024/04/10 08:49:27;;;;;;;17.37;4.97;;;12.30;99.90;;;;;;782200;183;26465;-79
2024/04/10 08:51:54;;;;;;;21.50;5.23;;;12.60;99.90;;;;;;753840;187;27091;-76
2024/04/10 08:54:20;;;;;;;17.30;4.97;;;12.80;99.90;;;;;;767593;184;26600;-77
2024/04/10 08:56:47;;;;;;;23.17;7.77;;;12.80;99.90;;;;;;784465;179;26454;-80
2024/04/10 08:59:14;;;;;;;17.23;5.20;;;12.90;99.90;;;;;;769665;184;26458;-78
2024/04/10 09:01:43;;;;;;;22.50;5.90;;;12.60;99.90;;;;;;764213;187;28156;-79
2024/04/10 09:04:09;;;;;;;17.90;4.13;;;12.80;99.90;;;;;;771322;185;26470;-78
2024/04/10 09:06:35;;;;;;;19.00;4.47;;;12.60;99.90;;;;;;779173;183;26474;-79
2024/04/10 09:09:06;;;;;;;18.73;4.73;;;12.30;99.90;;;;;;782985;183;26599;-79
2024/04/10 09:11:29;;;;;;;21.90;5.07;;;12.40;99.90;;;;;;780798;182;26494;-79
2024/04/10 09:14:01;;;;;;;17.57;4.00;;;12.40;99.90;;;;;;782864;183;26475;-78
2024/04/10 09:16:28;;;;;;;16.60;4.67;;;12.80;99.90;;;;;;783567;181;26453;-79
2024/04/10 09:18:54;;;;;;;14.90;5.07;;;13.10;99.90;;;;;;762497;187;26507;-78
2024/04/10 09:21:21;;;;;;;17.13;4.77;;;13.50;99.70;;;;;;779887;183;26583;-77
2024/04/10 09:23:48;;;;;;;13.53;5.40;;;13.80;98.70;;;;;;778162;184;26472;-79
2024/04/10 09:26:16;;;;;;;20.30;5.00;;;14.10;98.50;;;;;;775182;183;26456;-78
2024/04/10 09:28:43;;;;;;;16.60;4.27;;;14.00;98.00;;;;;;782778;183;26449;-79
2024/04/10 09:31:21;;;;;;;9.93;4.37;;;13.90;96.90;;;;;;784557;181;26466;-79
2024/04/10 09:33:47;;;;;;;14.83;4.70;;;13.70;97.90;;;;;;786215;183;26448;-79
2024/04/10 09:36:14;;;;;;;13.73;4.00;;;13.40;98.30;;;;;;766678;186;27005;-77
2024/04/10 09:38:40;;;;;;;13.10;3.73;;;13.20;99.20;;;;;;769516;183;26459;-78
2024/04/10 09:41:07;;;;;;;17.40;4.73;;;13.60;98.30;;;;;;781097;180;26615;-77
2024/04/10 09:43:34;;;;;;;14.57;4.57;;;13.80;96.70;;;;;;779662;181;26464;-78
2024/04/10 09:46:03;;;;;;;20.30;5.87;;;13.80;96.60;;;;;;769127;186;26535;-78
2024/04/10 09:48:30;;;;;;;12.73;4.20;;;14.00;95.70;;;;;;777328;183;26523;-77
2024/04/10 09:50:55;;;;;;;10.57;3.53;;;14.20;94.10;;;;;;782706;183;26484;-77
2024/04/10 09:53:22;;;;;;;17.00;4.20;;;14.20;94.10;;;;;;772674;183;26491;-78
2024/04/10 09:55:48;;;;;;;86.10;40.73;;;14.30;94.80;;;;;;780648;183;26449;-78
2024/04/10 09:58:15;;;;;;;56.13;24.57;;;14.10;95.20;;;;;;760497;187;26481;-77
2024/04/10 10:00:42;;;;;;;58.00;23.37;;;14.30;95.20;;;;;;782848;183;26631;-77
2024/04/10 10:03:08;;;;;;;14.13;4.80;;;14.40;94.10;;;;;;782969;183;26456;-79
2024/04/10 10:05:35;;;;;;;35.10;16.07;;;14.50;94.40;;;;;;767082;186;26484;-79
2024/04/10 10:08:07;;;;;;;48.87;21.33;;;14.40;94.90;;;;;;780695;181;26443;-80
2024/04/10 10:10:45;;;;;;;41.80;19.97;;;14.60;93.90;;;;;;761909;187;28153;-79
2024/04/10 10:13:15;;;;;;;18.10;6.07;;;14.30;94.00;;;;;;774030;170;26538;-82
2024/04/10 10:15:44;;;;;;;10.07;4.80;;;14.50;93.70;;;;;;773986;183;26479;-80
2024/04/10 10:18:11;;;;;;;11.00;3.90;;;14.80;92.70;;;;;;774833;183;26497;-82
2024/04/10 10:20:51;;;;;;;;;;;;;;;;;;;;;
2024/04/10 10:23:20;;;;;;;17.23;3.87;;;14.80;91.20;;;;;;795223;173;26510;-81
2024/04/10 10:25:45;;;;;;;13.87;4.97;;;14.60;92.00;;;;;;809617;178;26503;-82
2024/04/10 10:28:12;;;;;;;18.70;6.97;;;14.50;92.60;;;;;;825564;173;26414;-82
2024/04/10 10:30:39;;;;;;;18.77;8.07;;;13.90;93.50;;;;;;818760;174;26470;-81
2024/04/10 10:33:05;;;;;;;26.10;8.10;;;13.80;92.80;;;;;;813234;177;26414;-82
2024/04/10 10:35:32;;;;;;;44.77;18.47;;;13.80;93.20;;;;;;813494;177;26423;-80
2024/04/10 10:37:58;;;;;;;94.47;41.53;;;13.90;94.10;;;;;;822632;175;26364;-81
2024/04/10 10:40:25;;;;;;;13.37;4.17;;;14.00;92.50;;;;;;798270;175;26440;-81
2024/04/10 10:42:58;;;;;;;15.67;6.03;;;14.90;92.00;;;;;;799267;178;26441;-82
2024/04/10 10:45:25;;;;;;;10.13;2.77;;;16.40;89.60;;;;;;824603;171;26368;-81
2024/04/10 10:47:52;;;;;;;10.60;3.40;;;15.90;79.00;;;;;;800266;180;26420;-80
2024/04/10 10:50:18;;;;;;;11.50;3.50;;;14.70;86.00;;;;;;800076;180;26427;-81
2024/04/10 10:52:45;;;;;;;11.97;4.13;;;14.10;90.10;;;;;;799764;180;26443;-83
2024/04/10 10:55:14;;;;;;;20.30;6.50;;;13.90;92.90;;;;;;799766;180;26497;-82
2024/04/10 10:57:41;;;;;;;15.43;6.20;;;13.90;91.60;;;;;;799649;180;26431;-82
2024/04/10 11:00:19;;;;;;;27.00;11.10;;;14.10;89.90;;;;;;799653;180;26509;-82
2024/04/10 11:02:45;;;;;;;95.97;45.73;;;14.50;91.30;;;;;;799158;180;26439;-82
2024/04/10 11:05:12;;;;;;;107.50;49.00;;;16.60;77.70;;;;;;799091;180;26516;-82
2024/04/10 11:07:38;;;;;;;45.57;22.87;;;16.70;67.70;;;;;;799164;178;26453;-82
2024/04/10 11:10:05;;;;;;;16.43;7.37;;;18.10;68.20;;;;;;799032;180;26447;-82
2024/04/10 11:12:32;;;;;;;16.50;6.50;;;19.90;54.70;;;;;;799104;180;26520;-82
2024/04/10 11:15:06;;;;;;;9.80;3.13;;;20.60;50.70;;;;;;799445;180;27100;-83
2024/04/10 11:17:33;;;;;;;28.47;14.70;;;19.90;49.30;;;;;;799416;180;26460;-81
2024/04/10 11:20:00;;;;;;;108.10;48.87;;;19.70;49.90;;;;;;798895;179;26674;-82
2024/04/10 11:22:27;;;;;;;19.00;7.90;;;20.20;46.80;;;;;;798710;179;26433;-82
2024/04/10 11:24:54;;;;;;;11.40;4.90;;;21.50;46.50;;;;;;799225;180;26458;-81
2024/04/10 11:27:21;;;;;;;12.20;4.40;;;22.10;43.10;;;;;;799377;180;26482;-82
2024/04/10 11:29:50;;;;;;;12.93;4.03;;;22.00;41.70;;;;;;799239;176;27062;-82
2024/04/10 11:32:15;;;;;;;13.37;4.47;;;21.80;44.30;;;;;;798670;180;26620;-82
2024/04/10 11:34:42;;;;;;;23.90;11.93;;;21.90;44.20;;;;;;798994;180;26423;-82
2024/04/10 11:37:10;;;;;;;11.10;3.03;;;21.10;44.00;;;;;;798962;179;26440;-81
2024/04/10 11:39:38;;;;;;;10.33;3.67;;;19.00;44.30;;;;;;799712;177;26436;-83
2024/04/10 11:42:04;;;;;;;10.30;4.03;;;17.30;49.10;;;;;;798542;180;26440;-81
2024/04/10 11:44:31;;;;;;;9.33;3.40;;;17.00;50.70;;;;;;798897;180;26413;-82
2024/04/10 11:46:57;;;;;;;9.00;3.47;;;17.70;49.80;;;;;;798729;179;26421;-81
2024/04/10 11:49:25;;;;;;;6.87;2.90;;;18.80;49.20;;;;;;798667;180;26448;-81
2024/04/10 11:51:51;;;;;;;8.53;3.33;;;20.60;44.60;;;;;;799040;180;27045;-82
2024/04/10 11:54:18;;;;;;;10.73;4.53;;;21.90;41.90;;;;;;800704;178;26469;-82
2024/04/10 11:56:45;;;;;;;10.40;3.50;;;22.90;39.90;;;;;;801211;179;26426;-83
2024/04/10 11:59:12;;;;;;;15.30;5.73;;;23.00;38.40;;;;;;800627;176;26469;-82
2024/04/10 12:01:44;;;;;;;12.10;4.03;;;23.40;38.90;;;;;;800452;176;26463;-83
2024/04/10 12:04:11;;;;;;;24.03;11.40;;;23.80;38.30;;;;;;800169;176;26423;-82
2024/04/10 12:06:38;;;;;;;11.73;4.50;;;25.20;35.40;;;;;;800334;180;26444;-83
2024/04/10 12:09:07;;;;;;;16.37;6.03;;;25.00;35.40;;;;;;800417;180;26431;-81
2024/04/10 12:11:32;;;;;;;48.60;29.77;;;24.00;32.80;;;;;;799777;178;26460;-81
2024/04/10 12:13:58;;;;;;;232.80;114.40;;;24.20;32.90;;;;;;799374;180;26432;-80
2024/04/10 12:16:26;;;;;;;90.00;48.00;;;23.30;32.90;;;;;;799397;177;26501;-81
2024/04/10 12:18:52;;;;;;;129.00;67.33;;;22.10;36.80;;;;;;799344;180;26432;-83
2024/04/10 12:21:19;;;;;;;68.90;40.30;;;20.10;37.40;;;;;;799715;177;26497;-82
2024/04/10 12:23:46;;;;;;;46.90;24.33;;;19.00;42.10;;;;;;799452;179;26495;-82
2024/04/10 12:26:14;;;;;;;90.27;47.03;;;17.60;43.10;;;;;;799382;180;26478;-82
2024/04/10 12:28:39;;;;;;;12.77;5.37;;;18.60;43.70;;;;;;799307;180;26525;-83
2024/04/10 12:31:06;;;;;;;11.27;2.73;;;20.30;40.50;;;;;;798952;177;26469;-82
2024/04/10 12:33:35;;;;;;;108.77;52.00;;;20.40;38.00;;;;;;798987;179;26452;-85
2024/04/10 12:38:32;;;;;;;28.13;14.73;;;17.60;43.50;;;;;;798998;180;26451;-80
2024/04/10 12:40:59;;;;;;;24.67;11.00;;;16.90;45.90;;;;;;799033;179;26456;-81
2024/04/10 12:43:26;;;;;;;40.90;18.73;;;16.60;49.30;;;;;;800117;178;26998;-82